Time;durP1;ratioP1;P1;durP2;ratioP2;P2;SDS_P1;SDS_P2;PMS_P1;PMS_P2;Temp;Humidity;BMP_temperature;BMP_pressure;BME280_temperature;BME280_humidity;BME280_pressure;Samples;Min_cycle;Max_cycle;Signal;HPM_P1;HPM_P2
2022/06/04 03:01:18;;;;;;;0.80;0.80;;;19.80;77.10;;;;;;5686788;23;20584;-73
2022/06/04 03:03:45;;;;;;;0.90;0.90;;;19.80;77.10;;;;;;4978412;28;20458;-72
2022/06/04 03:06:22;;;;;;;0.97;0.97;;;19.80;77.10;;;;;;4977106;28;20528;-73
2022/06/04 03:08:49;;;;;;;0.90;0.90;;;19.80;77.10;;;;;;4977094;28;20493;-72
2022/06/04 03:11:16;;;;;;;1.10;0.90;;;19.80;77.20;;;;;;4976589;28;20497;-72
2022/06/04 03:13:42;;;;;;;0.90;0.90;;;19.80;77.00;;;;;;4977727;28;20472;-72
2022/06/04 03:16:09;;;;;;;0.90;0.90;;;19.80;76.90;;;;;;5007835;23;21062;-71
2022/06/04 03:18:38;;;;;;;0.83;0.83;;;19.70;77.00;;;;;;4996098;28;20560;-72
2022/06/04 03:21:05;;;;;;;0.90;0.90;;;19.70;77.00;;;;;;4996545;28;20856;-72
2022/06/04 03:23:32;;;;;;;0.83;0.83;;;19.70;76.90;;;;;;4997114;28;20453;-72
2022/06/04 03:25:59;;;;;;;0.80;0.80;;;19.70;76.90;;;;;;4997010;28;20500;-72
2022/06/04 03:28:25;;;;;;;0.90;0.90;;;19.70;77.10;;;;;;4996681;28;20932;-72
2022/06/04 03:30:52;;;;;;;1.10;1.10;;;19.60;78.50;;;;;;4996861;28;20472;-72
2022/06/04 03:33:19;;;;;;;0.90;0.90;;;19.30;80.40;;;;;;4996879;28;20453;-71
2022/06/04 03:35:47;;;;;;;0.90;0.90;;;19.30;80.50;;;;;;4997185;28;20481;-71
2022/06/04 03:38:14;;;;;;;0.87;0.87;;;19.40;80.20;;;;;;4996712;28;20460;-72
2022/06/04 03:40:40;;;;;;;1.00;1.00;;;19.40;80.70;;;;;;4996166;28;20869;-73
2022/06/04 03:43:07;;;;;;;0.80;0.80;;;19.30;81.80;;;;;;4996621;28;20480;-73
2022/06/04 03:45:34;;;;;;;0.80;0.80;;;19.10;82.60;;;;;;4996494;28;20469;-73
2022/06/04 03:48:01;;;;;;;0.87;0.87;;;19.00;83.30;;;;;;4996079;28;20457;-72
2022/06/04 03:50:29;;;;;;;0.90;0.90;;;18.70;84.20;;;;;;4996578;28;20934;-72
2022/06/04 03:52:57;;;;;;;1.13;0.87;;;18.60;85.00;;;;;;4996551;28;20549;-72
2022/06/04 03:55:25;;;;;;;0.90;0.90;;;18.60;85.60;;;;;;4996295;28;20547;-72
2022/06/04 03:57:52;;;;;;;0.90;0.90;;;18.50;85.90;;;;;;4996893;28;20478;-72
2022/06/04 04:00:23;;;;;;;1.07;1.07;;;18.60;86.00;;;;;;4996079;28;20523;-72
2022/06/04 04:02:51;;;;;;;0.90;0.90;;;18.70;85.40;;;;;;4996015;28;20552;-72
2022/06/04 04:05:21;;;;;;;0.70;0.70;;;18.80;85.20;;;;;;4995116;28;20831;-72
2022/06/04 04:07:48;;;;;;;0.90;0.90;;;18.80;85.00;;;;;;4994730;28;20504;-72
2022/06/04 04:10:18;;;;;;;0.80;0.80;;;18.90;84.60;;;;;;4994981;28;20859;-71
2022/06/04 04:12:45;;;;;;;0.73;0.73;;;19.10;83.90;;;;;;4994957;28;20445;-71
2022/06/04 04:15:13;;;;;;;0.80;0.80;;;19.30;83.20;;;;;;4994766;28;20483;-72
2022/06/04 04:17:41;;;;;;;0.80;0.80;;;19.50;82.50;;;;;;4994667;28;20461;-71
2022/06/04 04:20:10;;;;;;;0.80;0.80;;;19.60;82.00;;;;;;4994814;28;20457;-71
2022/06/04 04:22:37;;;;;;;0.80;0.80;;;19.80;81.10;;;;;;4994729;28;20891;-72
2022/06/04 04:25:05;;;;;;;1.00;1.00;;;20.00;80.80;;;;;;4994726;28;20449;-72
2022/06/04 04:27:33;;;;;;;0.90;0.90;;;20.10;80.10;;;;;;4994793;28;20454;-71
2022/06/04 04:30:00;;;;;;;0.90;0.90;;;20.20;79.20;;;;;;4994672;28;20445;-72
2022/06/04 04:32:27;;;;;;;0.73;0.73;;;20.40;78.90;;;;;;4994730;28;20444;-72
2022/06/04 04:34:54;;;;;;;0.90;0.90;;;20.50;78.70;;;;;;4994673;28;20448;-72
2022/06/04 04:37:21;;;;;;;1.20;0.80;;;20.60;78.60;;;;;;4994362;28;20900;-72
2022/06/04 04:39:47;;;;;;;0.80;0.80;;;20.70;78.40;;;;;;4994235;28;20877;-72
2022/06/04 04:42:14;;;;;;;0.80;0.80;;;20.70;78.10;;;;;;4994446;28;20531;-72
2022/06/04 04:44:42;;;;;;;0.83;0.83;;;20.90;77.70;;;;;;4994426;28;20444;-72
2022/06/04 04:47:09;;;;;;;0.90;0.80;;;20.90;78.10;;;;;;4994330;28;20523;-71
2022/06/04 04:49:36;;;;;;;0.83;0.83;;;21.00;78.00;;;;;;4994406;28;20520;-72
2022/06/04 04:52:04;;;;;;;0.90;0.90;;;20.90;78.50;;;;;;4994353;28;20441;-72
2022/06/04 04:54:31;;;;;;;0.80;0.80;;;20.90;78.60;;;;;;4994339;28;20495;-71
2022/06/04 04:56:58;;;;;;;0.70;0.70;;;21.10;78.10;;;;;;4994272;28;20523;-72
2022/06/04 04:59:25;;;;;;;0.80;0.80;;;21.00;78.30;;;;;;4994420;28;20445;-71
2022/06/04 05:01:53;;;;;;;0.90;0.90;;;21.00;78.10;;;;;;4993769;28;20484;-72
2022/06/04 05:04:20;;;;;;;0.70;0.70;;;20.90;78.40;;;;;;4994245;28;20449;-72
2022/06/04 05:06:47;;;;;;;1.03;0.93;;;21.00;78.20;;;;;;4994147;28;20473;-72
2022/06/04 05:09:14;;;;;;;0.87;0.87;;;21.10;78.00;;;;;;4993901;28;20503;-72
2022/06/04 05:11:41;;;;;;;1.03;0.93;;;21.20;77.80;;;;;;4993748;28;20848;-71
2022/06/04 05:14:08;;;;;;;0.80;0.80;;;21.30;77.80;;;;;;4994086;28;20511;-72
2022/06/04 05:16:36;;;;;;;0.73;0.73;;;21.20;77.70;;;;;;4993703;28;20480;-72
2022/06/04 05:19:04;;;;;;;0.70;0.70;;;21.00;78.40;;;;;;4993972;28;20532;-72
2022/06/04 05:21:39;;;;;;;0.93;0.80;;;21.10;78.70;;;;;;4993863;28;20453;-72
2022/06/04 05:24:07;;;;;;;0.80;0.80;;;21.20;78.50;;;;;;4993968;28;20433;-72
2022/06/04 05:26:34;;;;;;;0.70;0.70;;;21.30;78.20;;;;;;4993894;28;20465;-72
2022/06/04 05:29:01;;;;;;;0.70;0.70;;;21.30;78.20;;;;;;4993961;28;20509;-72
2022/06/04 05:31:27;;;;;;;0.70;0.70;;;21.30;78.30;;;;;;4993896;28;20863;-72
2022/06/04 05:33:54;;;;;;;0.80;0.80;;;21.20;78.10;;;;;;4993920;28;20820;-72
2022/06/04 05:36:22;;;;;;;0.80;0.80;;;21.10;78.70;;;;;;4993467;28;21051;-72
2022/06/04 05:38:48;;;;;;;1.67;0.90;;;21.10;78.40;;;;;;4993805;28;20456;-71
2022/06/04 05:41:15;;;;;;;0.90;0.90;;;21.10;78.50;;;;;;4993777;28;20449;-72
2022/06/04 05:43:42;;;;;;;0.70;0.70;;;21.10;78.40;;;;;;4993736;28;20481;-71
2022/06/04 05:46:11;;;;;;;0.70;0.70;;;21.00;77.70;;;;;;4993699;28;20461;-72
2022/06/04 05:48:39;;;;;;;0.70;0.70;;;20.90;77.80;;;;;;4993780;28;20440;-71
2022/06/04 05:51:06;;;;;;;0.70;0.60;;;20.90;78.20;;;;;;4993716;28;20479;-72
2022/06/04 05:53:34;;;;;;;0.70;0.70;;;20.60;79.10;;;;;;4993656;28;20445;-72
2022/06/04 05:56:00;;;;;;;0.80;0.80;;;20.40;80.00;;;;;;4993627;28;20469;-72
2022/06/04 05:58:27;;;;;;;0.80;0.80;;;20.20;80.50;;;;;;4993631;28;20452;-72
2022/06/04 06:00:59;;;;;;;0.87;0.87;;;20.10;81.40;;;;;;4993617;28;20503;-72
2022/06/04 06:03:26;;;;;;;0.80;0.80;;;20.00;81.40;;;;;;4993590;28;20560;-72
2022/06/04 06:05:53;;;;;;;0.70;0.70;;;19.80;81.90;;;;;;4993395;28;20469;-72
2022/06/04 06:08:19;;;;;;;0.70;0.70;;;19.70;82.50;;;;;;4993297;28;20497;-71
2022/06/04 06:10:48;;;;;;;0.80;0.77;;;19.40;83.70;;;;;;4993507;28;20449;-72
2022/06/04 06:13:15;;;;;;;0.80;0.70;;;19.30;84.50;;;;;;4996731;28;21007;-72
2022/06/04 06:15:41;;;;;;;0.80;0.80;;;19.40;84.60;;;;;;4996959;28;20492;-71
2022/06/04 06:18:09;;;;;;;0.80;0.80;;;19.60;85.10;;;;;;4997378;28;20440;-71
2022/06/04 06:20:36;;;;;;;0.80;0.80;;;19.60;85.20;;;;;;4997331;28;20451;-73
2022/06/04 06:23:03;;;;;;;0.90;0.90;;;19.70;85.60;;;;;;4997075;28;20528;-72
2022/06/04 06:25:30;;;;;;;0.80;0.80;;;19.60;85.70;;;;;;4996565;28;20477;-71
2022/06/04 06:27:58;;;;;;;0.70;0.70;;;19.40;86.90;;;;;;4996385;28;20853;-72
2022/06/04 06:30:25;;;;;;;1.00;1.00;;;19.30;87.40;;;;;;4996539;28;20449;-72
2022/06/04 06:32:51;;;;;;;1.20;1.10;;;19.20;88.10;;;;;;4996558;28;20539;-71
2022/06/04 06:35:18;;;;;;;0.90;0.90;;;19.20;88.30;;;;;;4996387;28;20448;-71
2022/06/04 06:37:45;;;;;;;1.13;1.00;;;19.20;88.40;;;;;;4996574;28;20452;-72
2022/06/04 06:40:13;;;;;;;0.90;0.90;;;19.30;88.40;;;;;;4996430;28;20523;-72
2022/06/04 06:42:40;;;;;;;0.80;0.80;;;19.60;87.90;;;;;;4996321;28;20477;-72
2022/06/04 06:45:10;;;;;;;0.80;0.80;;;19.80;87.30;;;;;;4996176;28;20507;-72
2022/06/04 06:47:36;;;;;;;0.70;0.70;;;20.00;86.70;;;;;;4996351;28;20792;-72
2022/06/04 06:50:04;;;;;;;1.20;1.10;;;20.20;86.00;;;;;;4996173;28;20445;-72
2022/06/04 06:52:30;;;;;;;0.80;0.80;;;20.50;85.50;;;;;;4995884;28;20924;-72
2022/06/04 06:54:57;;;;;;;1.10;0.80;;;20.60;85.50;;;;;;4996202;28;20455;-72
2022/06/04 06:57:24;;;;;;;1.07;0.97;;;20.70;85.20;;;;;;4995656;28;21032;-72
2022/06/04 06:59:50;;;;;;;0.87;0.87;;;20.70;85.30;;;;;;4996777;28;20813;-73
2022/06/04 07:02:18;;;;;;;1.17;1.00;;;20.80;84.90;;;;;;4995729;28;20480;-72
2022/06/04 07:04:45;;;;;;;0.80;0.80;;;20.90;84.50;;;;;;4997399;28;20453;-72
2022/06/04 07:07:12;;;;;;;0.87;0.83;;;21.10;84.20;;;;;;4995618;28;20894;-72
2022/06/04 07:09:41;;;;;;;0.90;0.90;;;21.10;84.00;;;;;;4995543;28;20870;-71
2022/06/04 07:12:10;;;;;;;0.80;0.80;;;21.10;83.90;;;;;;4995719;28;20936;-71
2022/06/04 07:14:37;;;;;;;1.57;0.90;;;21.30;83.60;;;;;;4995864;28;20445;-71
2022/06/04 07:17:05;;;;;;;1.17;1.07;;;21.40;83.70;;;;;;4995559;28;20476;-72
2022/06/04 07:19:34;;;;;;;1.00;1.00;;;21.50;83.80;;;;;;4995557;28;20457;-71
2022/06/04 07:22:01;;;;;;;1.23;1.03;;;21.50;83.70;;;;;;4995822;28;20453;-72
2022/06/04 07:24:27;;;;;;;0.80;0.80;;;21.60;83.40;;;;;;4995908;28;20551;-72
2022/06/04 07:26:54;;;;;;;0.90;0.90;;;21.60;83.70;;;;;;4995732;28;20469;-72
2022/06/04 07:29:22;;;;;;;0.80;0.80;;;21.70;83.90;;;;;;4995673;28;20446;-72
2022/06/04 07:31:49;;;;;;;0.83;0.83;;;21.90;83.60;;;;;;4995701;28;20461;-72
2022/06/04 07:34:15;;;;;;;0.90;0.90;;;22.10;83.50;;;;;;4995479;28;20503;-71
2022/06/04 07:36:45;;;;;;;1.00;0.90;;;22.30;82.40;;;;;;4995537;28;20481;-72
2022/06/04 07:39:14;;;;;;;1.37;0.90;;;22.60;81.50;;;;;;4995529;28;20445;-72
2022/06/04 07:41:43;;;;;;;0.80;0.80;;;22.80;81.40;;;;;;4995467;28;20536;-72
2022/06/04 07:44:12;;;;;;;0.80;0.80;;;22.90;81.10;;;;;;4995317;28;20576;-72
2022/06/04 07:46:40;;;;;;;0.77;0.77;;;23.10;79.90;;;;;;4995390;28;20516;-72
2022/06/04 07:49:08;;;;;;;0.70;0.70;;;23.20;79.70;;;;;;4995271;28;20471;-71
2022/06/04 07:51:35;;;;;;;0.73;0.73;;;23.40;79.10;;;;;;4995021;28;20449;-72
2022/06/04 07:54:05;;;;;;;0.80;0.80;;;23.40;78.60;;;;;;4995055;28;20495;-73
2022/06/04 07:56:32;;;;;;;0.77;0.77;;;23.50;78.30;;;;;;4995001;28;20539;-72
2022/06/04 07:58:59;;;;;;;0.93;0.90;;;23.60;78.40;;;;;;4994917;28;20453;-72
2022/06/04 08:01:28;;;;;;;0.80;0.80;;;23.70;78.10;;;;;;4994862;28;20449;-72
2022/06/04 08:03:55;;;;;;;0.77;0.73;;;23.80;78.50;;;;;;4994780;28;20487;-69
2022/06/04 08:06:23;;;;;;;0.80;0.80;;;24.00;78.20;;;;;;4994688;28;20465;-70
2022/06/04 08:08:54;;;;;;;0.80;0.80;;;24.30;78.10;;;;;;4994830;28;20457;-70
2022/06/04 08:11:32;;;;;;;0.80;0.80;;;24.40;75.50;;;;;;4995508;28;20512;-69
2022/06/04 08:14:09;;;;;;;0.90;0.80;;;24.50;75.30;;;;;;4994787;28;20421;-73
2022/06/04 08:16:38;;;;;;;0.70;0.70;;;24.70;76.40;;;;;;4994276;28;20550;-73
2022/06/04 08:19:05;;;;;;;0.73;0.73;;;24.20;74.10;;;;;;4994446;28;20444;-72
2022/06/04 08:21:32;;;;;;;0.80;0.80;;;23.80;76.80;;;;;;4994453;28;20457;-72
2022/06/04 08:23:59;;;;;;;1.30;0.80;;;24.10;76.80;;;;;;4995065;28;20520;-71
2022/06/04 08:26:27;;;;;;;0.80;0.80;;;24.30;77.30;;;;;;4994296;28;20472;-71
2022/06/04 08:28:54;;;;;;;1.17;0.70;;;23.80;76.90;;;;;;4994296;28;20449;-73
2022/06/04 08:31:21;;;;;;;0.70;0.70;;;23.70;78.30;;;;;;4994276;28;20476;-72
2022/06/04 08:33:48;;;;;;;0.70;0.70;;;24.10;77.20;;;;;;4994111;28;20449;-72
2022/06/04 08:36:16;;;;;;;0.80;0.80;;;24.50;76.40;;;;;;4993164;28;20483;-72
2022/06/04 08:38:43;;;;;;;0.70;0.70;;;24.30;74.70;;;;;;4993798;28;20899;-71
2022/06/04 08:41:20;;;;;;;0.70;0.70;;;24.20;75.80;;;;;;4994121;28;20818;-72
2022/06/04 08:43:54;;;;;;;0.80;0.80;;;24.20;76.40;;;;;;4993891;28;20527;-72
2022/06/04 08:46:28;;;;;;;1.00;0.90;;;24.50;76.00;;;;;;4993955;28;20527;-73
2022/06/04 08:48:56;;;;;;;0.80;0.70;;;24.80;74.30;;;;;;4993911;28;20468;-73
2022/06/04 08:51:26;;;;;;;0.80;0.77;;;24.90;73.20;;;;;;4993645;28;20508;-72
2022/06/04 08:53:55;;;;;;;0.80;0.80;;;25.00;73.30;;;;;;4993828;28;20853;-72
2022/06/04 08:59:22;;;;;;;0.70;0.70;;;25.20;73.90;;;;;;4993710;28;20771;-72
2022/06/04 09:01:53;;;;;;;0.80;0.80;;;24.90;73.30;;;;;;4994516;28;20433;-73
2022/06/04 09:04:35;;;;;;;0.80;0.80;;;25.10;73.60;;;;;;4993656;28;20548;-72
2022/06/04 09:07:09;;;;;;;0.80;0.80;;;25.40;73.00;;;;;;4993608;28;20544;-73
2022/06/04 09:09:40;;;;;;;0.70;0.70;;;25.30;73.30;;;;;;4993525;28;20433;-72
2022/06/04 09:12:18;;;;;;;0.90;0.90;;;25.30;72.10;;;;;;4993654;28;20425;-71
2022/06/04 09:14:52;;;;;;;0.70;0.70;;;25.20;71.60;;;;;;4993386;28;20433;-71
2022/06/04 09:17:24;;;;;;;0.70;0.63;;;25.20;72.60;;;;;;5016850;23;20501;-72
2022/06/04 09:19:55;;;;;;;0.70;0.60;;;25.00;71.90;;;;;;4994187;28;20437;-72
2022/06/04 09:22:25;;;;;;;0.73;0.60;;;25.20;74.20;;;;;;4994169;28;20441;-72
2022/06/04 09:24:52;;;;;;;0.70;0.70;;;25.70;70.90;;;;;;4994108;28;20484;-72
2022/06/04 09:27:29;;;;;;;1.07;0.97;;;26.20;71.80;;;;;;4994073;28;20469;-72
2022/06/04 09:30:05;;;;;;;0.70;0.60;;;26.70;69.10;;;;;;4994128;28;20848;-72
2022/06/04 09:32:47;;;;;;;1.00;0.60;;;26.50;67.10;;;;;;4993999;28;20819;-72
2022/06/04 09:35:18;;;;;;;0.70;0.60;;;26.70;65.30;;;;;;4994880;28;20429;-73
2022/06/04 09:37:47;;;;;;;0.90;0.60;;;26.90;66.20;;;;;;4993509;28;20980;-72
2022/06/04 09:40:20;;;;;;;0.80;0.70;;;26.90;66.80;;;;;;4993589;28;20871;-72
2022/06/04 09:42:47;;;;;;;1.00;0.70;;;26.70;67.10;;;;;;4993632;28;20532;-72
2022/06/04 09:45:27;;;;;;;0.70;0.60;;;26.60;67.10;;;;;;4993931;28;20449;-72
2022/06/04 09:47:56;;;;;;;0.70;0.60;;;26.40;67.60;;;;;;4997162;28;20449;-72
2022/06/04 09:50:30;;;;;;;0.70;0.70;;;26.50;67.70;;;;;;4997513;28;20945;-72
2022/06/04 09:53:00;;;;;;;0.70;0.60;;;26.50;67.00;;;;;;4997854;28;20429;-72
2022/06/04 09:55:29;;;;;;;0.70;0.60;;;26.40;68.10;;;;;;4997730;28;20437;-72
2022/06/04 09:57:57;;;;;;;0.70;0.53;;;26.20;68.40;;;;;;4997791;28;20449;-73
2022/06/04 10:00:28;;;;;;;0.70;0.60;;;26.20;68.80;;;;;;4997290;28;20449;-72
2022/06/04 10:02:56;;;;;;;0.70;0.60;;;26.20;68.20;;;;;;4997600;28;20425;-72
2022/06/04 10:05:27;;;;;;;0.80;0.80;;;26.20;67.90;;;;;;4997652;28;20533;-72
2022/06/04 10:07:54;;;;;;;0.70;0.70;;;26.20;68.20;;;;;;4997575;28;20453;-72
2022/06/04 10:10:29;;;;;;;0.80;0.70;;;26.10;69.00;;;;;;4998196;28;20796;-72
2022/06/04 10:15:45;;;;;;;0.70;0.70;;;25.90;70.00;;;;;;4997105;28;20417;-72
2022/06/04 10:18:19;;;;;;;0.70;0.70;;;25.60;71.20;;;;;;4997384;28;20429;-72
2022/06/04 10:21:00;;;;;;;0.80;0.77;;;25.40;71.30;;;;;;4997214;28;20453;-72
2022/06/04 10:23:30;;;;;;;0.80;0.80;;;25.30;71.90;;;;;;4997088;28;20460;-72
2022/06/04 10:26:05;;;;;;;0.80;0.77;;;25.00;73.00;;;;;;4997271;28;20472;-72
2022/06/04 10:28:42;;;;;;;0.80;0.80;;;25.00;73.00;;;;;;4997100;28;20487;-72
2022/06/04 10:31:21;;;;;;;1.03;0.90;;;25.00;73.40;;;;;;4997153;28;20433;-72
2022/06/04 10:33:54;;;;;;;0.73;0.73;;;25.00;73.40;;;;;;4997125;28;20437;-73
2022/06/04 10:36:39;;;;;;;0.77;0.73;;;25.00;73.70;;;;;;4997079;28;20472;-72
2022/06/04 10:39:20;;;;;;;0.90;0.90;;;24.90;73.40;;;;;;4996846;28;20483;-73
2022/06/04 10:41:53;;;;;;;0.87;0.87;;;24.80;74.50;;;;;;4997010;28;20437;-73
2022/06/04 10:44:40;;;;;;;1.30;0.80;;;24.70;74.20;;;;;;4996982;28;20465;-73
2022/06/04 10:47:25;;;;;;;0.80;0.80;;;24.70;74.60;;;;;;4996742;28;20531;-72
2022/06/04 10:50:09;;;;;;;1.10;1.00;;;24.70;73.90;;;;;;4997054;28;20438;-72
2022/06/04 10:52:44;;;;;;;0.80;0.80;;;24.70;73.00;;;;;;4996981;28;20433;-72
2022/06/04 10:55:18;;;;;;;0.90;0.90;;;24.50;73.20;;;;;;4997077;28;20433;-72
2022/06/04 10:57:52;;;;;;;1.10;1.00;;;24.40;74.10;;;;;;4996057;28;20476;-72
2022/06/04 11:00:21;;;;;;;0.80;0.80;;;24.50;74.20;;;;;;4996264;28;20437;-72
2022/06/04 11:02:55;;;;;;;0.80;0.80;;;24.50;74.20;;;;;;5003697;28;20457;-74
2022/06/04 11:05:26;;;;;;;1.00;1.00;;;24.60;74.30;;;;;;5008200;28;20469;-73
2022/06/04 11:07:57;;;;;;;0.90;0.90;;;24.60;73.60;;;;;;5007115;28;20473;-73
2022/06/04 11:10:28;;;;;;;0.90;0.90;;;24.50;73.70;;;;;;5007996;28;20442;-72
2022/06/04 11:13:04;;;;;;;0.90;0.90;;;24.40;73.40;;;;;;5008406;28;20893;-72
2022/06/04 11:15:35;;;;;;;1.30;1.00;;;24.40;73.90;;;;;;5007835;28;20433;-71
2022/06/04 11:18:13;;;;;;;0.90;0.90;;;24.40;73.50;;;;;;5007191;28;20426;-72
2022/06/04 11:20:47;;;;;;;0.93;0.93;;;24.40;74.50;;;;;;5008530;28;20443;-72
2022/06/04 11:23:25;;;;;;;1.10;1.10;;;24.40;74.80;;;;;;5008351;28;20441;-73
2022/06/04 11:25:59;;;;;;;0.97;0.97;;;24.30;75.90;;;;;;5007862;28;20461;-72
2022/06/04 11:28:28;;;;;;;1.00;1.00;;;24.30;75.80;;;;;;5005213;28;20444;-73
2022/06/04 11:31:05;;;;;;;0.80;0.80;;;24.10;76.00;;;;;;4997251;28;20445;-72
2022/06/04 11:33:43;;;;;;;1.13;1.13;;;23.70;76.40;;;;;;4995904;28;20437;-72
2022/06/04 11:36:21;;;;;;;0.93;0.93;;;23.80;76.20;;;;;;4995830;28;20469;-72
2022/06/04 11:39:00;;;;;;;0.90;0.90;;;23.90;75.90;;;;;;4995931;28;20437;-72
2022/06/04 11:41:34;;;;;;;1.20;1.10;;;23.80;75.60;;;;;;4995880;28;20434;-73
2022/06/04 11:44:13;;;;;;;0.90;0.90;;;23.90;75.50;;;;;;4995511;28;20995;-73
2022/06/04 11:46:49;;;;;;;1.10;1.10;;;23.70;76.00;;;;;;4995861;28;20883;-72
2022/06/04 11:49:28;;;;;;;0.80;0.80;;;23.80;76.10;;;;;;4995660;28;20433;-72
2022/06/04 11:52:05;;;;;;;1.33;1.23;;;24.00;76.00;;;;;;4995288;28;20487;-72
2022/06/04 11:54:49;;;;;;;1.00;1.00;;;24.00;75.60;;;;;;4995576;28;20429;-72
2022/06/04 11:57:24;;;;;;;1.27;1.17;;;24.10;75.10;;;;;;4995348;28;20519;-72
2022/06/04 12:00:05;;;;;;;0.90;0.90;;;24.00;75.60;;;;;;4995592;28;20441;-72
2022/06/04 12:02:39;;;;;;;1.17;1.07;;;24.20;75.20;;;;;;4995421;28;20441;-73
2022/06/04 12:05:27;;;;;;;0.90;0.90;;;24.40;75.00;;;;;;4995026;28;21051;-73
2022/06/04 12:07:55;;;;;;;1.07;1.07;;;24.50;74.50;;;;;;4995272;28;20472;-72
2022/06/04 12:10:38;;;;;;;1.00;1.00;;;24.60;73.90;;;;;;4995114;28;20449;-73
2022/06/04 12:13:11;;;;;;;0.90;0.90;;;24.40;74.60;;;;;;4995041;28;20422;-72
2022/06/04 12:15:44;;;;;;;1.00;1.00;;;24.60;75.10;;;;;;4995721;28;20449;-72
2022/06/04 12:18:26;;;;;;;1.00;1.00;;;24.80;73.80;;;;;;4995221;28;20437;-72
2022/06/04 12:26:34;;;;;;;1.00;1.00;;;25.10;75.10;;;;;;4995081;28;20552;-72
2022/06/04 12:29:01;;;;;;;1.20;1.20;;;25.50;72.80;;;;;;4995050;28;20461;-72
2022/06/04 12:31:34;;;;;;;1.00;1.00;;;25.50;71.90;;;;;;4994958;28;20453;-73
2022/06/04 12:34:01;;;;;;;1.20;1.20;;;25.70;72.40;;;;;;4994933;28;20493;-73
2022/06/04 12:36:32;;;;;;;1.17;1.17;;;25.90;70.50;;;;;;4994786;28;20551;-73
2022/06/04 12:39:02;;;;;;;1.20;1.10;;;26.10;71.20;;;;;;4994905;28;20433;-73
2022/06/04 12:41:49;;;;;;;1.40;1.10;;;26.00;71.30;;;;;;4994710;28;20858;-73
2022/06/04 12:44:25;;;;;;;1.50;1.40;;;26.20;69.80;;;;;;4994363;28;21038;-73
2022/06/04 12:46:53;;;;;;;1.00;1.00;;;26.20;69.50;;;;;;4994348;28;20827;-72
2022/06/04 12:49:34;;;;;;;1.00;1.00;;;26.40;69.30;;;;;;4994665;28;20452;-73
2022/06/04 12:52:08;;;;;;;1.30;1.20;;;26.60;69.10;;;;;;4994794;28;20437;-75
2022/06/04 12:54:48;;;;;;;1.30;0.90;;;26.30;68.60;;;;;;4994995;28;20437;-74
2022/06/04 12:57:45;;;;;;;1.10;1.00;;;26.60;68.30;;;;;;4994569;28;20849;-74
2022/06/04 13:00:23;;;;;;;1.00;1.00;;;26.30;68.70;;;;;;4985994;28;20519;-75
2022/06/04 13:03:15;;;;;;;0.90;0.90;;;26.10;69.40;;;;;;4994753;28;20983;-72
2022/06/04 13:06:00;;;;;;;0.90;0.90;;;26.30;70.10;;;;;;4994828;28;20473;-74
2022/06/04 13:08:35;;;;;;;1.10;1.00;;;26.40;68.50;;;;;;4994951;28;20441;-75
2022/06/04 13:11:13;;;;;;;0.90;0.90;;;26.70;68.10;;;;;;4994561;28;20931;-73
2022/06/04 13:13:48;;;;;;;0.90;0.90;;;26.90;67.60;;;;;;4994251;28;20488;-73
2022/06/04 13:16:18;;;;;;;0.90;0.90;;;27.20;67.40;;;;;;4993896;28;20837;-74
2022/06/04 13:18:56;;;;;;;0.70;0.70;;;27.40;67.10;;;;;;4994250;28;20442;-74
2022/06/04 13:21:23;;;;;;;1.67;0.90;;;27.70;66.10;;;;;;4993624;28;20464;-74
2022/06/04 13:23:56;;;;;;;0.90;0.90;;;27.70;64.60;;;;;;4994077;28;20507;-73
2022/06/04 13:26:38;;;;;;;0.90;0.90;;;27.80;64.60;;;;;;4993898;28;20560;-73
2022/06/04 13:29:23;;;;;;;1.30;1.20;;;27.90;63.60;;;;;;4994053;28;20479;-73
2022/06/04 13:31:54;;;;;;;1.37;0.83;;;27.80;64.70;;;;;;4993779;28;20430;-72
2022/06/04 13:34:24;;;;;;;0.90;0.90;;;27.80;64.00;;;;;;4993537;28;20429;-72
2022/06/04 13:36:57;;;;;;;0.97;0.80;;;27.40;63.90;;;;;;4993808;28;20496;-72
2022/06/04 13:39:26;;;;;;;0.73;0.73;;;27.60;66.00;;;;;;4994049;28;20430;-73
2022/06/04 13:42:06;;;;;;;0.80;0.80;;;27.90;64.10;;;;;;4993851;28;20441;-73
2022/06/04 13:44:38;;;;;;;0.73;0.73;;;27.90;62.10;;;;;;4993924;28;20469;-73
2022/06/04 13:47:17;;;;;;;0.80;0.80;;;28.00;63.80;;;;;;4993901;28;20559;-72
2022/06/04 13:49:45;;;;;;;0.80;0.80;;;28.30;63.30;;;;;;4994143;28;20456;-73
2022/06/04 13:52:16;;;;;;;0.80;0.80;;;28.50;62.40;;;;;;4993506;28;20861;-72
2022/06/04 13:54:53;;;;;;;0.80;0.77;;;28.80;62.00;;;;;;4993884;28;20445;-72
2022/06/04 13:57:29;;;;;;;0.70;0.70;;;28.80;61.20;;;;;;4993677;28;20820;-73
2022/06/04 13:59:58;;;;;;;1.53;0.73;;;28.60;61.40;;;;;;4993884;28;20441;-73
2022/06/04 14:02:28;;;;;;;0.70;0.70;;;28.70;60.40;;;;;;4993899;28;20449;-73
2022/06/04 14:07:46;;;;;;;0.80;0.80;;;28.30;60.90;;;;;;4993505;28;20444;-72
2022/06/04 14:10:17;;;;;;;0.80;0.80;;;28.10;62.20;;;;;;4993709;28;20499;-73
2022/06/04 14:13:03;;;;;;;1.00;0.90;;;28.10;63.00;;;;;;4993599;28;20916;-73
2022/06/04 14:15:41;;;;;;;0.80;0.80;;;28.20;62.20;;;;;;4994673;28;20436;-73
2022/06/04 14:18:29;;;;;;;0.70;0.70;;;28.40;61.00;;;;;;4993749;28;20433;-72
2022/06/04 14:21:12;;;;;;;0.93;0.80;;;28.50;61.10;;;;;;4993872;28;20438;-73
2022/06/04 14:23:46;;;;;;;0.80;0.80;;;28.60;61.20;;;;;;4994468;28;20425;-73
2022/06/04 14:26:25;;;;;;;0.80;0.80;;;28.30;62.80;;;;;;4993368;28;20861;-73
2022/06/04 14:28:57;;;;;;;0.80;0.80;;;28.10;62.70;;;;;;4993208;28;20863;-72
2022/06/04 14:31:38;;;;;;;0.80;0.77;;;27.80;62.90;;;;;;4993579;28;20430;-73
2022/06/04 14:34:05;;;;;;;0.80;0.80;;;27.90;63.70;;;;;;4995028;28;20428;-73
2022/06/04 14:36:32;;;;;;;0.80;0.73;;;28.00;62.50;;;;;;4997001;28;20473;-72
2022/06/04 14:39:00;;;;;;;0.70;0.70;;;28.40;61.80;;;;;;4996977;28;20463;-72
2022/06/04 14:41:44;;;;;;;0.87;0.87;;;28.70;60.40;;;;;;4997054;28;20449;-73
2022/06/04 14:44:45;;;;;;;0.80;0.80;;;29.10;60.20;;;;;;4997102;28;20429;-73
2022/06/04 14:47:44;;;;;;;0.80;0.80;;;29.50;59.40;;;;;;4996804;28;20456;-72
2022/06/04 14:50:25;;;;;;;0.70;0.70;;;29.50;59.10;;;;;;4996825;28;20480;-72
2022/06/04 14:52:55;;;;;;;0.90;0.80;;;29.70;58.50;;;;;;4996444;28;20950;-72
2022/06/04 14:55:28;;;;;;;0.80;0.80;;;29.70;58.10;;;;;;4996633;28;20437;-72
2022/06/04 14:58:27;;;;;;;0.80;0.80;;;29.80;58.50;;;;;;4996647;28;20509;-72
2022/06/04 15:01:35;;;;;;;0.70;0.63;;;30.10;56.90;;;;;;4996663;28;20805;-72
2022/06/04 15:04:33;;;;;;;0.70;0.70;;;29.90;57.00;;;;;;4955555;29;20893;-72
2022/06/04 15:07:19;;;;;;;0.70;0.70;;;29.60;57.40;;;;;;4927287;29;20551;-72
2022/06/04 15:10:05;;;;;;;0.73;0.73;;;29.90;57.40;;;;;;4990146;28;20528;-72
2022/06/04 15:12:47;;;;;;;0.87;0.87;;;29.70;57.30;;;;;;4996482;28;20487;-73
2022/06/04 15:15:28;;;;;;;0.70;0.70;;;29.00;58.20;;;;;;4996356;28;20483;-72
2022/06/04 15:18:24;;;;;;;0.70;0.70;;;28.70;60.10;;;;;;5018692;23;20569;-72
2022/06/04 15:21:00;;;;;;;0.80;0.80;;;28.80;59.30;;;;;;4995471;28;20429;-72
2022/06/04 15:23:56;;;;;;;0.80;0.80;;;28.40;59.80;;;;;;4995211;28;20886;-72
2022/06/04 15:26:29;;;;;;;0.70;0.70;;;28.30;60.70;;;;;;4991851;28;20503;-73
2022/06/04 15:34:45;;;;;;;0.97;0.80;;;27.70;61.10;;;;;;4995061;28;20555;-71
2022/06/04 15:37:21;;;;;;;0.80;0.80;;;27.70;61.20;;;;;;4995139;28;20895;-71
2022/06/04 15:40:02;;;;;;;1.03;0.70;;;27.60;62.20;;;;;;4995356;28;20437;-72
2022/06/04 15:42:44;;;;;;;0.80;0.80;;;27.50;62.70;;;;;;4994788;28;20440;-71
2022/06/04 15:45:20;;;;;;;0.90;0.90;;;27.70;62.00;;;;;;4994578;28;20469;-72
2022/06/04 15:47:57;;;;;;;0.70;0.70;;;27.30;62.30;;;;;;4994979;28;20477;-71
2022/06/04 15:56:18;;;;;;;0.80;0.80;;;26.80;63.00;;;;;;4995229;28;20752;-71
2022/06/04 15:58:58;;;;;;;0.97;0.80;;;26.70;63.70;;;;;;4994875;28;20434;-71
2022/06/04 16:01:42;;;;;;;0.70;0.70;;;27.00;64.10;;;;;;4994777;28;20444;-71
2022/06/04 16:04:43;;;;;;;1.10;0.70;;;27.30;63.00;;;;;;4994856;28;20467;-72
2022/06/04 16:07:30;;;;;;;0.70;0.70;;;27.20;62.30;;;;;;4986732;28;20523;-71
2022/06/04 16:10:12;;;;;;;1.10;0.70;;;27.10;63.40;;;;;;4988670;28;20456;-71
2022/06/04 16:12:47;;;;;;;0.70;0.70;;;27.40;62.50;;;;;;4994577;28;20524;-71
2022/06/04 16:15:19;;;;;;;0.80;0.70;;;27.70;62.00;;;;;;4994516;28;20435;-73
2022/06/04 16:17:53;;;;;;;0.70;0.70;;;27.90;60.60;;;;;;4994105;28;20481;-71
2022/06/04 16:20:29;;;;;;;0.80;0.80;;;27.80;60.50;;;;;;4994629;28;20433;-71
2022/06/04 16:23:07;;;;;;;0.73;0.70;;;27.70;60.80;;;;;;4994285;28;20520;-71
2022/06/04 16:25:38;;;;;;;0.70;0.60;;;27.90;61.40;;;;;;4996664;28;20980;-73
2022/06/04 16:28:17;;;;;;;0.70;0.70;;;28.00;60.10;;;;;;4996990;28;20473;-72
2022/06/04 16:30:45;;;;;;;0.70;0.63;;;28.10;59.50;;;;;;4996726;28;20448;-72
2022/06/04 16:33:23;;;;;;;0.70;0.70;;;28.00;59.90;;;;;;4996414;28;20941;-72
2022/06/04 16:36:08;;;;;;;0.80;0.80;;;27.90;60.00;;;;;;4996589;28;20425;-72
2022/06/04 16:38:54;;;;;;;0.70;0.70;;;27.90;60.70;;;;;;4997076;28;20429;-72
2022/06/04 16:44:39;;;;;;;0.70;0.70;;;27.90;60.50;;;;;;4996619;28;20400;-73